Time;durP1;ratioP1;P1;durP2;ratioP2;P2;SDS_P1;SDS_P2;PMS_P1;PMS_P2;Temp;Humidity;BMP_temperature;BMP_pressure;BME280_temperature;BME280_humidity;BME280_pressure;Samples;Min_cycle;Max_cycle;Signal;HPM_P1;HPM_P2
2022/06/22 00:00:15;;;;;;;;;;;;;;;;;;5052472;28;19917;-25
2022/06/22 00:02:43;;;;;;;;;;;;;;;;;;5037183;28;20024;-26
2022/06/22 00:05:09;;;;;;;;;;;;;;;;;;5036777;28;20406;-25
2022/06/22 00:07:37;;;;;;;;;;;;;;;;;;5036984;28;19909;-24
2022/06/22 00:10:05;;;;;;;;;;;;;;;;;;5036876;28;19921;-25
2022/06/22 00:12:32;;;;;;;;;;;;;;;;;;5037086;28;19941;-25
2022/06/22 00:14:59;;;;;;;;;;;;;;;;;;5037076;28;19932;-25
2022/06/22 00:17:26;;;;;;;;;;;;;;;;;;5037134;28;19913;-25
2022/06/22 00:19:53;;;;;;;;;;;;;;;;;;5036702;28;20000;-25
2022/06/22 00:22:19;;;;;;;;;;;;;;;;;;5037168;28;19913;-25
2022/06/22 00:24:47;;;;;;;;;;;;;;;;;;5036854;28;19909;-25
2022/06/22 00:27:13;;;;;;;;;;;;;;;;;;5036700;28;19941;-25
2022/06/22 00:29:40;;;;;;;;;;;;;;;;;;5053030;28;19928;-25
2022/06/22 00:32:07;;;;;;;;;;;;;;;;;;5037604;28;19970;-26
2022/06/22 00:34:34;;;;;;;;;;;;;;;;;;5036992;28;19909;-25
2022/06/22 00:37:01;;;;;;;;;;;;;;;;;;5036572;28;20332;-25
2022/06/22 00:39:27;;;;;;;;;;;;;;;;;;5052393;28;20022;-25
2022/06/22 00:41:54;;;;;;;;;;;;;;;;;;5036866;28;19936;-25
2022/06/22 00:44:22;;;;;;;;;;;;;;;;;;5036263;28;19909;-25
2022/06/22 00:46:49;;;;;;;;;;;;;;;;;;5036759;28;19944;-25
2022/06/22 00:49:16;;;;;;;;;;;;;;;;;;5036858;28;19913;-25
2022/06/22 00:51:43;;;;;;;;;;;;;;;;;;5051960;28;19977;-25
2022/06/22 00:54:10;;;;;;;;;;;;;;;;;;5036165;28;20000;-25
2022/06/22 00:56:37;;;;;;;;;;;;;;;;;;5039263;28;19975;-25
2022/06/22 00:59:03;;;;;;;;;;;;;;;;;;5055876;28;19953;-25
2022/06/22 01:01:30;;;;;;;;;;;;;;;;;;5040455;28;19921;-25
2022/06/22 01:03:57;;;;;;;;;;;;;;;;;;5040103;28;19917;-25
2022/06/22 01:06:24;;;;;;;;;;;;;;;;;;5040027;28;19984;-25
2022/06/22 01:08:50;;;;;;;;;;;;;;;;;;5039857;28;19921;-25
2022/06/22 01:14:02;;;;;;;;;;;;;;;;;;5040008;28;19925;-25
2022/06/22 01:16:29;;;;;;;;;;;;;;;;;;5055553;28;20264;-25
2022/06/22 01:18:56;;;;;;;;;;;;;;;;;;5039758;28;19913;-25
2022/06/22 01:21:23;;;;;;;;;;;;;;;;;;5040200;28;19909;-25
2022/06/22 01:23:50;;;;;;;;;;;;;;;;;;5055367;28;19913;-24
2022/06/22 01:26:16;;;;;;;;;;;;;;;;;;5039817;28;19948;-25
2022/06/22 01:28:43;;;;;;;;;;;;;;;;;;5039722;28;20294;-25
2022/06/22 01:31:11;;;;;;;;;;;;;;;;;;5039542;28;19968;-25
2022/06/22 01:33:38;;;;;;;;;;;;;;;;;;5039824;28;19927;-25
2022/06/22 01:36:05;;;;;;;;;;;;;;;;;;5039999;28;19913;-25
2022/06/22 01:38:32;;;;;;;;;;;;;;;;;;5040034;28;19994;-25
2022/06/22 01:40:59;;;;;;;;;;;;;;;;;;5039745;28;19909;-25
2022/06/22 01:43:26;;;;;;;;;;;;;;;;;;5039693;28;19913;-25
2022/06/22 01:45:53;;;;;;;;;;;;;;;;;;5039407;28;19920;-25
2022/06/22 01:48:20;;;;;;;;;;;;;;;;;;5039308;28;19909;-25
2022/06/22 01:50:46;;;;;;;;;;;;;;;;;;5039377;28;19952;-25
2022/06/22 01:53:13;;;;;;;;;;;;;;;;;;5039417;28;19920;-25
2022/06/22 01:55:40;;;;;;;;;;;;;;;;;;5054704;28;19940;-25
2022/06/22 01:58:07;;;;;;;;;;;;;;;;;;5039185;28;19924;-24
2022/06/22 02:00:34;;;;;;;;;;;;;;;;;;5056749;28;19924;-25
2022/06/22 02:03:01;;;;;;;;;;;;;;;;;;5057759;28;19973;-25
2022/06/22 02:05:28;;;;;;;;;;;;;;;;;;5059179;28;19913;-26
2022/06/22 02:07:56;;;;;;;;;;;;;;;;;;5058308;28;19944;-24
2022/06/22 02:10:23;;;;;;;;;;;;;;;;;;5058841;28;20010;-25
2022/06/22 02:12:50;;;;;;;;;;;;;;;;;;5058787;28;20370;-25
2022/06/22 02:15:16;;;;;;;;;;;;;;;;;;5057754;28;20279;-25
2022/06/22 02:17:43;;;;;;;;;;;;;;;;;;5057700;28;19916;-25
2022/06/22 02:20:11;;;;;;;;;;;;;;;;;;5058037;28;20055;-25
2022/06/22 02:22:37;;;;;;;;;;;;;;;;;;5059448;28;19939;-25
2022/06/22 02:25:04;;;;;;;;;;;;;;;;;;5058334;28;19916;-25
2022/06/22 02:27:31;;;;;;;;;;;;;;;;;;5058436;28;19921;-25
2022/06/22 02:29:58;;;;;;;;;;;;;;;;;;5058487;28;20225;-25
2022/06/22 02:32:25;;;;;;;;;;;;;;;;;;5057200;28;19920;-25
2022/06/22 02:34:52;;;;;;;;;;;;;;;;;;5058618;28;19909;-25
2022/06/22 02:37:19;;;;;;;;;;;;;;;;;;5056982;28;19924;-25
2022/06/22 02:39:46;;;;;;;;;;;;;;;;;;5057663;28;19995;-25
2022/06/22 02:44:58;;;;;;;;;;;;;;;;;;5058404;28;19971;-25
2022/06/22 02:47:32;;;;;;;;;;;;;;;;;;5058311;28;19912;-25
2022/06/22 02:49:59;;;;;;;;;;;;;;;;;;5058294;28;19925;-24
2022/06/22 02:52:26;;;;;;;;;;;;;;;;;;5059001;28;19912;-25
2022/06/22 02:54:53;;;;;;;;;;;;;;;;;;5057558;28;19920;-24
2022/06/22 02:57:23;;;;;;;;;;;;;;;;;;5058539;28;19939;-25
2022/06/22 02:59:49;;;;;;;;;;;;;;;;;;5058442;28;19920;-25
2022/06/22 03:02:17;;;;;;;;;;;;;;;;;;5056559;28;19913;-25
2022/06/22 03:04:44;;;;;;;;;;;;;;;;;;5056357;28;20324;-25
2022/06/22 03:07:11;;;;;;;;;;;;;;;;;;5057058;28;20271;-25
2022/06/22 03:09:39;;;;;;;;;;;;;;;;;;5057870;28;19928;-25
2022/06/22 03:12:13;;;;;;;;;;;;;;;;;;5057711;28;19913;-25
2022/06/22 03:26:15;;;;;;;;;;;;;;;;;;5063125;28;19982;-25
2022/06/22 03:28:47;;;;;;;;;;;;;;;;;;5060739;28;20421;-25
2022/06/22 03:37:06;;;;;;;;;;;;;;;;;;5061718;28;19923;-25
2022/06/22 03:39:36;;;;;;;;;;;;;;;;;;5062641;28;20402;-25
2022/06/22 03:44:54;;;;;;;;;;;;;;;;;;5057700;28;19915;-25
2022/06/22 03:47:22;;;;;;;;;;;;;;;;;;5059369;28;20003;-25
2022/06/22 03:49:52;;;;;;;;;;;;;;;;;;5057902;28;20244;-25
2022/06/22 03:55:10;;;;;;;;;;;;;;;;;;5059788;28;19919;-25
2022/06/22 04:00:22;;;;;;;;;;;;;;;;;;5058981;28;19986;-25
2022/06/22 04:02:50;;;;;;;;;;;;;;;;;;5061006;28;19924;-25
2022/06/22 04:10:58;;;;;;;;;;;;;;;;;;5055773;28;19998;-25
2022/06/22 04:22:01;;;;;;;;;;;;;;;;;;5059087;28;19923;-25
2022/06/22 04:24:28;;;;;;;;;;;;;;;;;;5056394;28;20375;-25
2022/06/22 04:32:37;;;;;;;;;;;;;;;;;;5060150;28;20405;-24
2022/06/22 04:51:45;;;;;;;;;;;;;;;;;;5061453;28;20066;-25
2022/06/22 04:54:15;;;;;;;;;;;;;;;;;;5061663;28;20284;-23
2022/06/22 04:56:50;;;;;;;;;;;;;;;;;;5059466;28;19913;-23
2022/06/22 04:59:17;;;;;;;;;;;;;;;;;;5059922;28;19932;-23
2022/06/22 05:02:13;;;;;;;;;;;;;;;;;;5056590;28;20355;-23
2022/06/22 05:04:40;;;;;;;;;;;;;;;;;;5060082;28;19976;-24
2022/06/22 05:10:04;;;;;;;;;;;;;;;;;;5061460;28;19951;-24
2022/06/22 05:12:32;;;;;;;;;;;;;;;;;;5061803;28;19913;-24
2022/06/22 05:15:02;;;;;;;;;;;;;;;;;;5059962;28;20270;-24
2022/06/22 05:17:31;;;;;;;;;;;;;;;;;;5057486;28;20247;-24
2022/06/22 05:22:50;;;;;;;;;;;;;;;;;;5061449;28;20271;-28
2022/06/22 05:25:21;;;;;;;;;;;;;;;;;;5060470;28;19920;-24
2022/06/22 05:27:48;;;;;;;;;;;;;;;;;;5059648;28;19924;-23
2022/06/22 05:35:54;;;;;;;;;;;;;;;;;;5059035;28;19924;-26
2022/06/22 05:38:20;;;;;;;;;;;;;;;;;;5056440;28;20213;-26
2022/06/22 05:40:46;;;;;;;;;;;;;;;;;;5056755;28;19925;-26
2022/06/22 05:43:12;;;;;;;;;;;;;;;;;;5055567;28;19920;-25
2022/06/22 05:45:38;;;;;;;;;;;;;;;;;;5055187;28;20228;-24
2022/06/22 05:48:04;;;;;;;;;;;;;;;;;;5056288;28;19971;-24
2022/06/22 05:50:31;;;;;;;;;;;;;;;;;;5056483;28;19912;-24
2022/06/22 05:52:58;;;;;;;;;;;;;;;;;;5056382;28;19916;-24
2022/06/22 05:55:27;;;;;;;;;;;;;;;;;;5056590;28;20359;-24
2022/06/22 05:57:53;;;;;;;;;;;;;;;;;;5056289;28;19923;-24
2022/06/22 06:00:19;;;;;;;;;;;;;;;;;;5056059;28;20003;-24
2022/06/22 06:02:45;;;;;;;;;;;;;;;;;;5055989;28;19999;-24
2022/06/22 06:05:11;;;;;;;;;;;;;;;;;;5056248;28;19909;-25
2022/06/22 06:07:37;;;;;;;;;;;;;;;;;;5055695;28;19916;-25
2022/06/22 06:10:04;;;;;;;;;;;;;;;;;;5055502;28;19927;-25
2022/06/22 06:12:30;;;;;;;;;;;;;;;;;;5055372;28;19913;-25
2022/06/22 06:14:56;;;;;;;;;;;;;;;;;;5055270;28;19925;-25
2022/06/22 06:17:22;;;;;;;;;;;;;;;;;;5055222;28;19922;-30
2022/06/22 06:19:48;;;;;;;;;;;;;;;;;;5055106;28;20371;-25
2022/06/22 06:22:14;;;;;;;;;;;;;;;;;;5054091;28;20305;-25
2022/06/22 06:27:34;;;;;;;;;;;;;;;;;;5054958;28;19939;-25
2022/06/22 06:27:35;;;;;;;;;;;;;;;;;;5055013;28;19963;-25
2022/06/22 06:30:01;;;;;;;;;;;;;;;;;;5055113;28;19931;-25
2022/06/22 06:32:27;;;;;;;;;;;;;;;;;;5054798;28;19913;-25
2022/06/22 06:34:53;;;;;;;;;;;;;;;;;;5055235;28;19909;-25
2022/06/22 06:37:19;;;;;;;;;;;;;;;;;;5053850;28;19913;-25
2022/06/22 06:39:45;;;;;;;;;;;;;;;;;;5054796;28;19917;-25
2022/06/22 06:42:12;;;;;;;;;;;;;;;;;;5055037;28;19920;-25
2022/06/22 06:44:38;;;;;;;;;;;;;;;;;;5054852;28;20008;-26
2022/06/22 06:47:06;;;;;;;;;;;;;;;;;;5053722;28;19983;-25
2022/06/22 06:49:32;;;;;;;;;;;;;;;;;;5055205;28;19986;-25
2022/06/22 06:51:59;;;;;;;;;;;;;;;;;;5055551;28;19928;-25
2022/06/22 06:54:30;;;;;;;;;;;;;;;;;;5054975;28;20221;-25
2022/06/22 06:56:56;;;;;;;;;;;;;;;;;;5054037;28;19935;-24
2022/06/22 06:59:22;;;;;;;;;;;;;;;;;;5054472;28;19928;-25
2022/06/22 07:01:50;;;;;;;;;;;;;;;;;;5054709;28;19982;-25
2022/06/22 07:07:08;;;;;;;;;;;;;;;;;;5055242;28;19974;-24
2022/06/22 07:09:36;;;;;;;;;;;;;;;;;;5054790;28;19983;-25
2022/06/22 07:12:14;;;;;;;;;;;;;;;;;;;;;
2022/06/22 07:14:47;;;;;;;;;;;;;;;;;;5054555;28;19913;-24
2022/06/22 07:17:13;;;;;;;;;;;;;;;;;;5054873;28;19923;-25
2022/06/22 07:19:44;;;;;;;;;;;;;;;;;;5054884;28;19913;-25
2022/06/22 07:22:10;;;;;;;;;;;;;;;;;;5054777;28;19920;-25
2022/06/22 07:24:37;;;;;;;;;;;;;;;;;;5054645;28;19920;-24
2022/06/22 07:27:04;;;;;;;;;;;;;;;;;;5054542;28;20009;-25
2022/06/22 07:29:41;;;;;;;;;;;;;;;;;;5054328;28;20332;-25
2022/06/22 07:32:17;;;;;;;;;;;;;;;;;;5054499;28;19969;-25
2022/06/22 07:34:49;;;;;;;;;;;;;;;;;;5054299;28;20021;-25
2022/06/22 07:37:19;;;;;;;;;;;;;;;;;;5054014;28;20117;-25
2022/06/22 07:39:47;;;;;;;;;;;;;;;;;;5054154;28;19988;-25
2022/06/22 07:42:24;;;;;;;;;;;;;;;;;;5053107;28;19931;-25
2022/06/22 07:44:57;;;;;;;;;;;;;;;;;;5056903;28;20237;-24
2022/06/22 07:58:56;;;;;;;;;;;;;;;;;;5058344;28;19932;-23
2022/06/22 08:04:15;;;;;;;;;;;;;;;;;;5056689;28;20327;-24
2022/06/22 08:09:18;;;;;;;;;;;;;;;;;;5039991;22;20363;-24
2022/06/22 08:11:48;;;;;;;;;;;;;;;;;;5036606;28;20343;-24
2022/06/22 08:14:20;;;;;;;;;;;;;;;;;;5019656;28;19944;-24
2022/06/22 08:16:48;;;;;;;;;;;;;;;;;;5036748;28;20012;-24
2022/06/22 08:19:17;;;;;;;;;;;;;;;;;;5035885;28;19920;-25
2022/06/22 08:21:47;;;;;;;;;;;;;;;;;;5036926;28;19928;-24
2022/06/22 08:24:15;;;;;;;;;;;;;;;;;;5035285;28;20323;-24
2022/06/22 08:26:43;;;;;;;;;;;;;;;;;;5037056;28;20270;-24
2022/06/22 08:29:11;;;;;;;;;;;;;;;;;;5036808;28;19917;-24
2022/06/22 08:31:41;;;;;;;;;;;;;;;;;;5036755;28;19924;-24
2022/06/22 08:34:10;;;;;;;;;;;;;;;;;;5036284;28;19925;-24
2022/06/22 08:36:38;;;;;;;;;;;;;;;;;;5036265;28;19945;-24
2022/06/22 08:39:06;;;;;;;;;;;;;;;;;;5036100;28;19921;-24
2022/06/22 08:41:34;;;;;;;;;;;;;;;;;;5035619;28;19913;-24
2022/06/22 08:44:03;;;;;;;;;;;;;;;;;;5035268;28;19941;-24
2022/06/22 08:46:31;;;;;;;;;;;;;;;;;;5034461;28;19913;-25
2022/06/22 08:48:59;;;;;;;;;;;;;;;;;;5035464;28;19945;-24
2022/06/22 08:51:26;;;;;;;;;;;;;;;;;;5035540;28;19913;-24
2022/06/22 08:53:55;;;;;;;;;;;;;;;;;;5033829;28;20381;-25
2022/06/22 08:56:22;;;;;;;;;;;;;;;;;;5034359;28;19913;-24
2022/06/22 08:58:50;;;;;;;;;;;;;;;;;;5035499;28;20256;-24
2022/06/22 09:01:19;;;;;;;;;;;;;;;;;;5036513;28;20065;-25
2022/06/22 09:03:48;;;;;;;;;;;;;;;;;;5035682;28;19923;-25
2022/06/22 09:06:21;;;;;;;;;;;;;;;;;;5036293;28;19999;-25
2022/06/22 09:08:50;;;;;;;;;;;;;;;;;;5051715;28;19928;-24
2022/06/22 09:11:21;;;;;;;;;;;;;;;;;;5070826;28;19984;-25
2022/06/22 09:13:49;;;;;;;;;;;;;;;;;;5071862;28;20011;-24
2022/06/22 09:16:17;;;;;;;;;;;;;;;;;;5055718;28;19913;-23
2022/06/22 09:18:45;;;;;;;;;;;;;;;;;;5057705;28;19913;-23
2022/06/22 09:21:17;;;;;;;;;;;;;;;;;;5075126;28;20011;-24
2022/06/22 09:23:44;;;;;;;;;;;;;;;;;;5074571;28;19916;-24
2022/06/22 09:26:12;;;;;;;;;;;;;;;;;;5058663;28;19913;-24
2022/06/22 09:28:41;;;;;;;;;;;;;;;;;;5058607;28;19934;-23
2022/06/22 09:31:09;;;;;;;;;;;;;;;;;;5059008;28;19917;-24
2022/06/22 09:33:36;;;;;;;;;;;;;;;;;;5074065;28;19913;-24
2022/06/22 09:36:04;;;;;;;;;;;;;;;;;;5059285;28;19955;-23
2022/06/22 09:38:33;;;;;;;;;;;;;;;;;;5058735;28;19912;-23
2022/06/22 09:41:01;;;;;;;;;;;;;;;;;;5059460;28;19909;-23
2022/06/22 09:43:28;;;;;;;;;;;;;;;;;;5059428;28;19924;-24
2022/06/22 09:45:59;;;;;;;;;;;;;;;;;;5059549;28;19912;-24
2022/06/22 09:48:26;;;;;;;;;;;;;;;;;;5059212;28;20003;-25
2022/06/22 09:50:57;;;;;;;;;;;;;;;;;;5058920;28;19917;-25
2022/06/22 10:01:48;;;;;;;;;;;;;;;;;;5058001;28;20006;-25
2022/06/22 10:04:22;;;;;;;;;;;;;;;;;;5061968;28;19938;-25
2022/06/22 10:06:51;;;;;;;;;;;;;;;;;;5074500;28;19959;-25
2022/06/22 10:09:28;;;;;;;;;;;;;;;;;;5044528;28;19932;-25
2022/06/22 10:11:56;;;;;;;;;;;;;;;;;;5038409;28;19913;-25
2022/06/22 10:14:25;;;;;;;;;;;;;;;;;;5036525;28;19971;-25
2022/06/22 10:16:54;;;;;;;;;;;;;;;;;;5038234;28;19913;-25
2022/06/22 10:19:22;;;;;;;;;;;;;;;;;;5038353;28;19913;-25
2022/06/22 10:21:51;;;;;;;;;;;;;;;;;;5038316;28;20279;-25
2022/06/22 10:24:23;;;;;;;;;;;;;;;;;;5038770;28;20302;-25
2022/06/22 10:26:50;;;;;;;;;;;;;;;;;;5038290;28;19921;-25
2022/06/22 10:29:17;;;;;;;;;;;;;;;;;;5036638;28;20386;-25
2022/06/22 10:31:45;;;;;;;;;;;;;;;;;;5037868;28;19971;-25
2022/06/22 10:34:13;;;;;;;;;;;;;;;;;;5037689;28;19920;-24
2022/06/22 10:36:39;;;;;;;;;;;;;;;;;;5037774;28;19925;-24
2022/06/22 10:39:08;;;;;;;;;;;;;;;;;;5038214;28;19920;-24
2022/06/22 10:55:38;;;;;;;;;;;;;;;;;;5051060;28;20339;-24
2022/06/22 10:58:08;;;;;;;;;;;;;;;;;;5037221;28;19969;-25
2022/06/22 11:31:31;;;;;;;;;;;;;;;;;;5056403;28;20405;-22
2022/06/22 11:33:58;;;;;;;;;;;;;;;;;;5057478;28;20250;-22
2022/06/22 11:36:26;;;;;;;;;;;;;;;;;;5057290;28;19909;-22
2022/06/22 11:39:00;;;;;;;;;;;;;;;;;;5057594;28;20334;-22
2022/06/22 11:44:16;;;;;;;;;;;;;;;;;;5056171;28;19919;-21
2022/06/22 11:46:44;;;;;;;;;;;;;;;;;;5057158;28;19916;-22
2022/06/22 11:51:57;;;;;;;;;;;;;;;;;;5056591;28;20385;-21
2022/06/22 11:54:27;;;;;;;;;;;;;;;;;;5059109;28;19913;-21
2022/06/22 11:57:03;;;;;;;;;;;;;;;;;;5057282;28;19909;-21
2022/06/22 11:59:31;;;;;;;;;;;;;;;;;;5056706;28;19931;-21
2022/06/22 12:01:58;;;;;;;;;;;;;;;;;;5055808;28;20232;-21
2022/06/22 12:04:27;;;;;;;;;;;;;;;;;;5055106;28;19913;-21
2022/06/22 12:07:03;;;;;;;;;;;;;;;;;;5056436;28;19920;-21
2022/06/22 12:15:12;;;;;;;;;;;;;;;;;;5055513;28;20465;-22
2022/06/22 12:17:39;;;;;;;;;;;;;;;;;;5057197;28;19913;-21
2022/06/22 12:20:06;;;;;;;;;;;;;;;;;;5055295;28;19937;-21
2022/06/22 12:22:33;;;;;;;;;;;;;;;;;;5056442;28;19920;-21
2022/06/22 12:25:04;;;;;;;;;;;;;;;;;;5055014;28;19924;-21
2022/06/22 12:27:31;;;;;;;;;;;;;;;;;;5056667;28;20339;-22
2022/06/22 12:29:58;;;;;;;;;;;;;;;;;;5055122;28;19932;-22
2022/06/22 12:32:29;;;;;;;;;;;;;;;;;;5055967;28;19917;-21
2022/06/22 12:37:48;;;;;;;;;;;;;;;;;;5057363;28;19924;-20
2022/06/22 12:40:18;;;;;;;;;;;;;;;;;;5055369;28;19919;-21
2022/06/22 12:42:47;;;;;;;;;;;;;;;;;;5057022;28;19909;-21
2022/06/22 12:45:16;;;;;;;;;;;;;;;;;;5055435;28;19913;-22
2022/06/22 12:47:46;;;;;;;;;;;;;;;;;;5055431;28;19952;-23
2022/06/22 12:50:15;;;;;;;;;;;;;;;;;;5055169;28;19926;-23
2022/06/22 12:52:43;;;;;;;;;;;;;;;;;;5059395;28;19913;-23
2022/06/22 12:55:10;;;;;;;;;;;;;;;;;;5059489;28;19918;-23
2022/06/22 12:57:41;;;;;;;;;;;;;;;;;;5059059;28;20304;-23
2022/06/22 13:00:08;;;;;;;;;;;;;;;;;;5060214;28;19923;-22
2022/06/22 13:02:40;;;;;;;;;;;;;;;;;;5059334;28;19909;-23
2022/06/22 13:05:07;;;;;;;;;;;;;;;;;;5060347;28;19912;-20
2022/06/22 13:07:39;;;;;;;;;;;;;;;;;;5060636;28;19970;-20
2022/06/22 13:10:08;;;;;;;;;;;;;;;;;;5059123;28;19912;-22
2022/06/22 13:12:40;;;;;;;;;;;;;;;;;;5061083;28;19942;-21
2022/06/22 13:15:07;;;;;;;;;;;;;;;;;;5060333;28;19931;-22
2022/06/22 13:34:27;;;;;;;;;;;;;;;;;;5070444;23;20358;-24
2022/06/22 13:48:18;;;;;;;;;;;;;;;;;;5078138;28;19941;-24
2022/06/22 13:56:35;;;;;;;;;;;;;;;;;;5078580;28;19924;-24
2022/06/22 13:59:05;;;;;;;;;;;;;;;;;;5077592;28;20353;-23
2022/06/22 14:04:29;;;;;;;;;;;;;;;;;;5078093;28;19946;-24
2022/06/22 14:07:00;;;;;;;;;;;;;;;;;;5060704;28;19912;-24
2022/06/22 14:09:27;;;;;;;;;;;;;;;;;;5078744;28;19913;-25
2022/06/22 14:11:56;;;;;;;;;;;;;;;;;;5060669;28;20258;-24
2022/06/22 14:14:23;;;;;;;;;;;;;;;;;;5077962;28;20239;-24
2022/06/22 14:16:55;;;;;;;;;;;;;;;;;;5078364;28;19935;-24
2022/06/22 14:19:23;;;;;;;;;;;;;;;;;;5078211;28;19913;-24
2022/06/22 14:21:51;;;;;;;;;;;;;;;;;;5078479;28;20266;-24
2022/06/22 14:24:18;;;;;;;;;;;;;;;;;;5077797;28;19908;-24
2022/06/22 14:26:45;;;;;;;;;;;;;;;;;;5078168;28;19913;-24
2022/06/22 14:29:12;;;;;;;;;;;;;;;;;;5077324;28;19908;-24
2022/06/22 14:31:41;;;;;;;;;;;;;;;;;;5060724;28;20262;-23
2022/06/22 14:34:28;;;;;;;;;;;;;;;;;;5076998;28;19921;-25
2022/06/22 14:37:05;;;;;;;;;;;;;;;;;;5074317;28;19928;-25
2022/06/22 14:39:35;;;;;;;;;;;;;;;;;;5077680;28;19924;-25
2022/06/22 14:50:39;;;;;;;;;;;;;;;;;;5054464;28;20346;-24
2022/06/22 14:53:06;;;;;;;;;;;;;;;;;;5057017;28;19917;-23
2022/06/22 14:58:29;;;;;;;;;;;;;;;;;;5062330;28;19970;-24
2022/06/22 15:00:56;;;;;;;;;;;;;;;;;;5062556;28;19913;-24
2022/06/22 15:06:17;;;;;;;;;;;;;;;;;;5055667;28;19935;-24
2022/06/22 15:17:32;;;;;;;;;;;;;;;;;;5055502;28;20003;-23
2022/06/22 15:39:49;;;;;;;;;;;;;;;;;;5056878;28;19940;-23
2022/06/22 15:42:22;;;;;;;;;;;;;;;;;;5057159;28;19912;-23
2022/06/22 15:50:36;;;;;;;;;;;;;;;;;;5059057;28;19928;-23
2022/06/22 15:55:55;;;;;;;;;;;;;;;;;;5057546;28;19920;-23
2022/06/22 15:58:22;;;;;;;;;;;;;;;;;;5056380;28;19920;-23
2022/06/22 16:00:50;;;;;;;;;;;;;;;;;;5071698;28;20262;-23
2022/06/22 16:03:16;;;;;;;;;;;;;;;;;;5056425;28;19999;-23
2022/06/22 16:05:43;;;;;;;;;;;;;;;;;;5056452;28;19944;-23
2022/06/22 16:08:11;;;;;;;;;;;;;;;;;;5056203;28;20007;-23
2022/06/22 16:10:38;;;;;;;;;;;;;;;;;;5056418;28;20243;-23
2022/06/22 16:15:49;;;;;;;;;;;;;;;;;;5056302;28;19959;-23
2022/06/22 16:18:16;;;;;;;;;;;;;;;;;;5056048;28;19920;-23
2022/06/22 16:20:43;;;;;;;;;;;;;;;;;;5056854;28;20262;-23
2022/06/22 16:23:10;;;;;;;;;;;;;;;;;;5057427;28;20000;-23
2022/06/22 16:25:38;;;;;;;;;;;;;;;;;;5056942;28;19908;-23
2022/06/22 16:28:07;;;;;;;;;;;;;;;;;;5059925;28;19916;-23
2022/06/22 16:30:34;;;;;;;;;;;;;;;;;;5060371;28;19913;-23
2022/06/22 16:33:11;;;;;;;;;;;;;;;;;;5061050;28;19912;-23
2022/06/22 17:03:47;;;;;;;;;;;;;;;;;;5230617;23;20344;-22
2022/06/22 17:06:14;;;;;;;;;;;;;;;;;;5022501;28;19960;-21
2022/06/22 17:08:41;;;;;;;;;;;;;;;;;;5040257;28;19913;-21
2022/06/22 17:11:08;;;;;;;;;;;;;;;;;;5039378;28;19917;-21
2022/06/22 17:13:35;;;;;;;;;;;;;;;;;;5039596;28;20355;-21
2022/06/22 17:16:01;;;;;;;;;;;;;;;;;;5040236;28;20003;-21
2022/06/22 17:18:29;;;;;;;;;;;;;;;;;;5039948;28;19992;-21
2022/06/22 17:20:56;;;;;;;;;;;;;;;;;;5022014;28;19924;-20
2022/06/22 17:23:27;;;;;;;;;;;;;;;;;;5021628;28;19972;-33
2022/06/22 17:25:54;;;;;;;;;;;;;;;;;;5022361;28;19932;-21
2022/06/22 17:28:20;;;;;;;;;;;;;;;;;;5040334;28;19913;-21
2022/06/22 17:30:50;;;;;;;;;;;;;;;;;;5025161;28;19917;-20
2022/06/22 17:33:18;;;;;;;;;;;;;;;;;;5024260;28;19976;-21
2022/06/22 17:35:45;;;;;;;;;;;;;;;;;;5021689;28;19956;-21
2022/06/22 17:38:12;;;;;;;;;;;;;;;;;;5037832;28;20007;-21
2022/06/22 17:40:40;;;;;;;;;;;;;;;;;;5039136;28;20270;-21
2022/06/22 17:43:08;;;;;;;;;;;;;;;;;;5039080;28;19910;-21
2022/06/22 17:45:35;;;;;;;;;;;;;;;;;;5039217;28;19914;-20
2022/06/22 17:48:02;;;;;;;;;;;;;;;;;;5038941;28;19969;-21
2022/06/22 17:50:29;;;;;;;;;;;;;;;;;;5038740;28;19932;-22
2022/06/22 17:52:56;;;;;;;;;;;;;;;;;;5021138;28;20000;-22
2022/06/22 17:55:26;;;;;;;;;;;;;;;;;;5038800;28;19981;-21
2022/06/22 17:57:53;;;;;;;;;;;;;;;;;;5039003;28;19914;-22
2022/06/22 18:00:21;;;;;;;;;;;;;;;;;;5020984;28;20340;-23
2022/06/22 18:02:49;;;;;;;;;;;;;;;;;;5037854;28;19984;-21
2022/06/22 18:05:17;;;;;;;;;;;;;;;;;;4998422;28;19926;-21
2022/06/22 18:07:44;;;;;;;;;;;;;;;;;;5014511;28;20367;-22
2022/06/22 18:10:11;;;;;;;;;;;;;;;;;;4999599;28;19920;-22
2022/06/22 18:12:37;;;;;;;;;;;;;;;;;;5014200;28;19914;-21
2022/06/22 18:15:05;;;;;;;;;;;;;;;;;;5014011;28;19937;-21
2022/06/22 18:17:32;;;;;;;;;;;;;;;;;;4999050;28;20012;-22
2022/06/22 18:20:03;;;;;;;;;;;;;;;;;;4998944;28;19918;-20
2022/06/22 18:22:38;;;;;;;;;;;;;;;;;;5015437;28;20307;-22
2022/06/22 18:25:08;;;;;;;;;;;;;;;;;;5002282;28;19952;-22
2022/06/22 18:30:22;;;;;;;;;;;;;;;;;;5001529;28;20292;-22
2022/06/22 18:42:03;;;;;;;;;;;;;;;;;;5004108;28;19960;-21
2022/06/22 18:44:23;;;;;;;;;;;;;;;;;;5000375;28;19924;-20
2022/06/22 18:49:41;;;;;;;;;;;;;;;;;;5001995;28;19940;-20
2022/06/22 18:52:08;;;;;;;;;;;;;;;;;;5013991;28;19914;-21
2022/06/22 19:08:37;;;;;;;;;;;;;;;;;;5295164;23;19929;-23
2022/06/22 19:11:04;;;;;;;;;;;;;;;;;;5036622;28;19968;-25
2022/06/22 19:13:32;;;;;;;;;;;;;;;;;;5037432;28;19935;-25
2022/06/22 19:16:01;;;;;;;;;;;;;;;;;;5019930;28;19921;-25
2022/06/22 19:18:31;;;;;;;;;;;;;;;;;;5036891;28;19913;-25
2022/06/22 19:20:58;;;;;;;;;;;;;;;;;;5036519;28;19924;-25
2022/06/22 19:23:25;;;;;;;;;;;;;;;;;;5018975;28;19909;-25
2022/06/22 19:25:52;;;;;;;;;;;;;;;;;;5019466;28;19920;-25
2022/06/22 19:28:19;;;;;;;;;;;;;;;;;;5037020;28;19909;-25
2022/06/22 19:30:46;;;;;;;;;;;;;;;;;;5037461;28;19917;-26
2022/06/22 19:33:13;;;;;;;;;;;;;;;;;;5036867;28;20017;-25
2022/06/22 19:35:40;;;;;;;;;;;;;;;;;;5036623;28;19940;-25
2022/06/22 19:38:11;;;;;;;;;;;;;;;;;;5019034;28;19919;-26
2022/06/22 19:40:37;;;;;;;;;;;;;;;;;;5019340;28;20351;-25
2022/06/22 19:46:07;;;;;;;;;;;;;;;;;;5038611;28;19987;-25
2022/06/22 19:48:59;;;;;;;;;;;;;;;;;;5036011;28;20400;-25
2022/06/22 19:51:26;;;;;;;;;;;;;;;;;;5039938;28;19971;-25
2022/06/22 19:53:53;;;;;;;;;;;;;;;;;;5018724;28;19911;-25
2022/06/22 19:56:21;;;;;;;;;;;;;;;;;;5036371;28;19917;-24
2022/06/22 19:58:48;;;;;;;;;;;;;;;;;;5017219;28;19986;-25
2022/06/22 20:01:15;;;;;;;;;;;;;;;;;;5034451;28;19920;-25
2022/06/22 20:03:42;;;;;;;;;;;;;;;;;;5017516;28;19959;-25
2022/06/22 20:06:09;;;;;;;;;;;;;;;;;;5017879;28;19967;-25
2022/06/22 20:08:36;;;;;;;;;;;;;;;;;;5034797;28;19921;-25
2022/06/22 20:11:03;;;;;;;;;;;;;;;;;;5017829;28;19913;-25
2022/06/22 20:13:30;;;;;;;;;;;;;;;;;;5035403;28;20383;-24
2022/06/22 20:15:57;;;;;;;;;;;;;;;;;;5017482;28;19913;-25
2022/06/22 20:18:23;;;;;;;;;;;;;;;;;;5034681;28;20339;-24
2022/06/22 20:20:51;;;;;;;;;;;;;;;;;;5035011;28;19948;-24
2022/06/22 20:23:17;;;;;;;;;;;;;;;;;;5035558;28;19913;-24
2022/06/22 20:25:44;;;;;;;;;;;;;;;;;;5018420;28;20022;-24
2022/06/22 20:28:13;;;;;;;;;;;;;;;;;;5035360;28;19921;-25
2022/06/22 20:30:41;;;;;;;;;;;;;;;;;;5018847;28;19924;-24
2022/06/22 20:33:08;;;;;;;;;;;;;;;;;;5036312;28;19913;-24
2022/06/22 20:35:36;;;;;;;;;;;;;;;;;;5018412;28;20012;-24
2022/06/22 20:38:02;;;;;;;;;;;;;;;;;;5016286;28;19975;-25
2022/06/22 20:40:28;;;;;;;;;;;;;;;;;;5033399;28;19920;-25
2022/06/22 20:43:02;;;;;;;;;;;;;;;;;;5033855;28;19913;-24
2022/06/22 20:48:39;;;;;;;;;;;;;;;;;;5034867;28;20040;-24
2022/06/22 20:51:13;;;;;;;;;;;;;;;;;;5020269;28;20414;-24
2022/06/22 20:59:14;;;;;;;;;;;;;;;;;;4047314;26;19930;-23
2022/06/22 21:04:32;;;;;;;;;;;;;;;;;;5014170;28;20009;-24
2022/06/22 21:06:59;;;;;;;;;;;;;;;;;;5019592;28;20355;-23
2022/06/22 21:09:43;;;;;;;;;;;;;;;;;;5022141;28;19925;-23
2022/06/22 21:12:12;;;;;;;;;;;;;;;;;;5036780;28;19914;-24
2022/06/22 21:14:40;;;;;;;;;;;;;;;;;;5025123;28;19979;-22
2022/06/22 21:17:20;;;;;;;;;;;;;;;;;;;;;
2022/06/22 21:19:57;;;;;;;;;;;;;;;;;;5022457;28;19941;-21
2022/06/22 21:22:28;;;;;;;;;;;;;;;;;;5022364;28;19909;-22
2022/06/22 21:27:42;;;;;;;;;;;;;;;;;;5022009;28;19960;-22
2022/06/22 21:33:00;;;;;;;;;;;;;;;;;;5023318;28;19939;-22
2022/06/22 21:38:22;;;;;;;;;;;;;;;;;;5417191;22;20339;-23
2022/06/22 21:40:49;;;;;;;;;;;;;;;;;;5041560;28;20047;-23
2022/06/22 21:43:15;;;;;;;;;;;;;;;;;;5059274;28;20005;-24
2022/06/22 21:45:44;;;;;;;;;;;;;;;;;;5041462;28;19912;-24
2022/06/22 21:48:11;;;;;;;;;;;;;;;;;;5059158;28;20223;-24
2022/06/22 21:50:38;;;;;;;;;;;;;;;;;;5041678;28;19913;-24
2022/06/22 21:53:05;;;;;;;;;;;;;;;;;;5058947;28;19982;-24
2022/06/22 21:55:32;;;;;;;;;;;;;;;;;;5041219;28;19919;-24
2022/06/22 21:57:58;;;;;;;;;;;;;;;;;;5041539;28;19952;-24
2022/06/22 22:00:27;;;;;;;;;;;;;;;;;;5058663;28;20228;-24
2022/06/22 22:02:54;;;;;;;;;;;;;;;;;;5058610;28;20334;-24
2022/06/22 22:05:21;;;;;;;;;;;;;;;;;;5058823;28;19913;-25
2022/06/22 22:07:48;;;;;;;;;;;;;;;;;;5058965;28;19916;-24
2022/06/22 22:10:15;;;;;;;;;;;;;;;;;;5059373;28;19920;-25
2022/06/22 22:12:44;;;;;;;;;;;;;;;;;;5058727;28;20370;-24
2022/06/22 22:15:10;;;;;;;;;;;;;;;;;;5058872;28;19913;-24
2022/06/22 22:17:37;;;;;;;;;;;;;;;;;;5058835;28;19970;-24
2022/06/22 22:20:04;;;;;;;;;;;;;;;;;;5058731;28;19912;-25
2022/06/22 22:22:31;;;;;;;;;;;;;;;;;;5041004;28;19913;-24
2022/06/22 22:24:58;;;;;;;;;;;;;;;;;;5057970;28;19920;-25
2022/06/22 22:27:25;;;;;;;;;;;;;;;;;;5040796;28;19920;-25
2022/06/22 22:29:52;;;;;;;;;;;;;;;;;;5058564;28;19970;-25